createdAt,value
2017-07-20T00:00:07.475Z,58.3
2017-07-20T00:00:47.933Z,58.69
2017-07-20T00:01:28.381Z,58.69
2017-07-20T00:02:08.831Z,58.78
2017-07-20T00:02:49.285Z,58.98
2017-07-20T00:03:29.743Z,58.69
2017-07-20T00:04:10.196Z,58.78
2017-07-20T00:04:50.652Z,58.78
2017-07-20T00:05:31.110Z,58.78
2017-07-20T00:06:11.566Z,58.69
2017-07-20T00:06:52.018Z,58.78
2017-07-20T00:07:32.474Z,58.69
2017-07-20T00:08:12.914Z,58.69
2017-07-20T00:08:53.351Z,58.78
2017-07-20T00:09:33.806Z,58.69
2017-07-20T00:10:14.289Z,58.59
2017-07-20T00:10:54.686Z,58.49
2017-07-20T00:11:35.146Z,58.59
2017-07-20T00:12:15.604Z,58.49
2017-07-20T00:14:33.714Z,58.49
2017-07-20T00:15:14.167Z,58.59
2017-07-20T00:15:54.643Z,58.59
2017-07-20T00:16:35.093Z,58.3
2017-07-20T00:17:15.548Z,58.59
2017-07-20T00:17:56.004Z,58.59
2017-07-20T00:18:36.457Z,58.78
2017-07-20T00:19:16.915Z,58.78
2017-07-20T00:19:57.372Z,58.69
2017-07-20T00:20:37.818Z,58.59
2017-07-20T00:21:18.277Z,58.78
2017-07-20T00:21:58.722Z,58.69
2017-07-20T00:22:39.172Z,58.69
2017-07-20T00:23:19.627Z,58.88
2017-07-20T00:24:00.082Z,58.39
2017-07-20T00:24:40.534Z,58.39
2017-07-20T00:25:20.994Z,58.3
2017-07-20T00:26:01.451Z,58.98
2017-07-20T00:26:41.902Z,58.3
2017-07-20T00:27:22.370Z,58.3
2017-07-20T00:28:02.878Z,58.39
2017-07-20T00:28:43.349Z,58.39
2017-07-20T00:29:23.803Z,58.39
2017-07-20T00:30:04.263Z,58.78
2017-07-20T00:30:44.712Z,58.59
2017-07-20T00:31:25.162Z,58.59
2017-07-20T00:32:05.615Z,58.69
2017-07-20T00:32:46.070Z,58.69
2017-07-20T00:33:26.524Z,58.78
2017-07-20T00:34:06.973Z,58.69
2017-07-20T00:34:47.426Z,58.59
2017-07-20T00:35:27.882Z,58.59
2017-07-20T00:36:08.333Z,58.98
2017-07-20T00:36:48.787Z,58.98
2017-07-20T00:37:29.228Z,58.59
2017-07-20T00:38:09.681Z,58.59
2017-07-20T00:38:50.139Z,58.59
2017-07-20T00:39:30.593Z,58.49
2017-07-20T00:40:11.059Z,58.59
2017-07-20T00:40:51.513Z,58.69
2017-07-20T00:41:31.966Z,58.59
2017-07-20T00:42:12.422Z,58.49
2017-07-20T00:42:52.871Z,58.39
2017-07-20T00:43:33.331Z,58.59
2017-07-20T00:44:13.779Z,58.39
2017-07-20T00:44:54.236Z,58.39
2017-07-20T00:45:34.691Z,58.69
2017-07-20T00:46:15.147Z,58.59
2017-07-20T00:46:55.604Z,58.49
2017-07-20T00:47:36.060Z,58.69
2017-07-20T00:48:16.523Z,58.49
2017-07-20T00:48:56.982Z,58.69
2017-07-20T00:49:37.527Z,58.59
2017-07-20T00:50:17.988Z,58.69
2017-07-20T00:50:58.436Z,58.69
2017-07-20T00:51:38.888Z,58.78
2017-07-20T00:52:19.341Z,58.69
2017-07-20T00:52:59.798Z,58.88
2017-07-20T00:53:40.248Z,58.49
2017-07-20T00:54:20.918Z,58.59
2017-07-20T00:55:01.377Z,58.59
2017-07-20T00:55:41.836Z,58.59
2017-07-20T00:56:22.292Z,58.59
2017-07-20T00:57:02.742Z,58.69
2017-07-20T00:57:43.203Z,58.49
2017-07-20T00:58:23.659Z,58.49
2017-07-20T00:59:04.120Z,58.47
2017-07-20T00:59:44.576Z,58.47
2017-07-20T01:00:25.044Z,58.49
2017-07-20T01:01:05.497Z,58.69
2017-07-20T01:01:45.957Z,58.47
2017-07-20T01:02:26.408Z,58.3
2017-07-20T01:03:06.869Z,58.69
2017-07-20T01:03:47.347Z,58.98
2017-07-20T01:04:27.809Z,58.69
2017-07-20T01:05:08.264Z,58.69
2017-07-20T01:05:48.723Z,58.75
2017-07-20T01:06:29.171Z,58.69
2017-07-20T01:07:09.619Z,58.56
2017-07-20T01:07:50.075Z,58.69
2017-07-20T01:08:30.531Z,58.59
2017-07-20T01:09:10.986Z,58.88
2017-07-20T01:09:51.432Z,58.47
2017-07-20T01:10:31.891Z,58.69
2017-07-20T01:11:12.348Z,58.78
2017-07-20T01:11:52.798Z,58.69
2017-07-20T01:12:33.257Z,58.78
2017-07-20T01:13:13.703Z,58.59
2017-07-20T01:13:54.160Z,58.65
2017-07-20T01:14:34.625Z,58.78
2017-07-20T01:15:15.077Z,58.88
2017-07-20T01:15:55.529Z,58.39
2017-07-20T01:16:35.983Z,58.59
2017-07-20T01:17:16.442Z,58.39
2017-07-20T01:17:56.897Z,58.39
2017-07-20T01:18:37.351Z,58.49
2017-07-20T01:19:17.806Z,58.59
2017-07-20T01:19:58.261Z,58.39
2017-07-20T01:20:38.714Z,58.59
2017-07-20T01:21:19.172Z,58.49
2017-07-20T01:21:59.624Z,58.49
2017-07-20T01:22:40.076Z,58.49
2017-07-20T01:23:20.529Z,58.59
2017-07-20T01:24:00.983Z,58.49
2017-07-20T01:24:41.435Z,58.49
2017-07-20T01:25:21.890Z,58.3
2017-07-20T01:26:02.360Z,58.39
2017-07-20T01:26:42.816Z,57.91
2017-07-20T01:27:23.274Z,57.71
2017-07-20T01:28:03.728Z,57.81
2017-07-20T01:28:44.173Z,57.71
2017-07-20T01:29:24.632Z,58.01
2017-07-20T01:30:05.080Z,58.01
2017-07-20T01:30:45.533Z,57.71
2017-07-20T01:31:25.988Z,58.01
2017-07-20T01:32:06.443Z,58.01
2017-07-20T01:32:46.901Z,58.3
2017-07-20T01:33:27.359Z,58.3
2017-07-20T01:34:07.816Z,58.11
2017-07-20T01:34:48.257Z,58.2
2017-07-20T01:35:28.713Z,58.2
2017-07-20T01:36:09.170Z,58.01
2017-07-20T01:36:49.619Z,58.2
2017-07-20T01:37:30.072Z,58.2
2017-07-20T01:38:10.528Z,57.91
2017-07-20T01:38:50.980Z,58.01
2017-07-20T01:39:31.439Z,58.01
2017-07-20T01:40:11.885Z,58.11
2017-07-20T01:40:52.338Z,58.01
2017-07-20T01:41:32.791Z,57.71
2017-07-20T01:42:13.252Z,57.81
2017-07-20T01:42:53.699Z,57.91
2017-07-20T01:43:34.154Z,57.81
2017-07-20T01:44:14.607Z,57.71
2017-07-20T01:44:55.062Z,58.2
2017-07-20T01:45:35.521Z,58.01
2017-07-20T01:46:15.982Z,58.11
2017-07-20T01:46:56.439Z,58.3
2017-07-20T01:47:36.890Z,58.11
2017-07-20T01:48:17.350Z,58.01
2017-07-20T01:48:57.797Z,58.01
2017-07-20T01:49:38.251Z,58.01
2017-07-20T01:50:18.705Z,58.01
2017-07-20T01:50:59.166Z,58.01
2017-07-20T01:51:39.618Z,57.81
2017-07-20T01:52:20.071Z,58.01
2017-07-20T01:53:00.526Z,58.01
2017-07-20T01:53:40.978Z,58.01
2017-07-20T01:54:21.436Z,58.01
2017-07-20T01:55:01.890Z,58.01
2017-07-20T01:55:42.363Z,58.01
2017-07-20T01:56:22.811Z,58.3
2017-07-20T01:57:03.267Z,58.39
2017-07-20T01:57:43.715Z,58.39
2017-07-20T01:58:24.174Z,58.39
2017-07-20T01:59:04.627Z,58.39
2017-07-20T01:59:45.070Z,58.39
2017-07-20T02:00:25.528Z,58.49
2017-07-20T02:01:05.980Z,58.39
2017-07-20T02:01:46.433Z,57.91
2017-07-20T02:02:26.887Z,57.91
2017-07-20T02:03:07.342Z,57.88
2017-07-20T02:03:47.798Z,58.17
2017-07-20T02:04:28.251Z,58.27
2017-07-20T02:05:08.707Z,57.98
2017-07-20T02:05:49.159Z,57.91
2017-07-20T02:06:29.614Z,58.01
2017-07-20T02:07:10.069Z,58.3
2017-07-20T02:07:50.527Z,57.81
2017-07-20T02:08:30.965Z,57.71
2017-07-20T02:09:11.419Z,58.01
2017-07-20T02:09:51.889Z,57.81
2017-07-20T02:10:32.347Z,58.01
2017-07-20T02:11:12.790Z,58.17
2017-07-20T02:11:53.245Z,58.2
2017-07-20T02:12:33.699Z,57.81
2017-07-20T02:13:14.148Z,58.27
2017-07-20T02:13:54.594Z,57.91
2017-07-20T02:14:35.042Z,57.69
2017-07-20T02:15:15.499Z,57.79
2017-07-20T02:15:55.957Z,57.71
2017-07-20T02:16:36.412Z,57.91
2017-07-20T02:17:16.938Z,57.71
2017-07-20T02:17:57.320Z,58.2
2017-07-20T02:18:37.774Z,58.3
2017-07-20T02:19:18.237Z,58.27
2017-07-20T02:19:58.691Z,57.98
2017-07-20T02:20:39.153Z,58.59
2017-07-20T02:21:19.607Z,58.47
2017-07-20T02:22:00.061Z,58.37
2017-07-20T02:22:40.516Z,58.95
2017-07-20T02:23:20.962Z,58.65
2017-07-20T02:24:01.417Z,58.27
2017-07-20T02:24:41.869Z,58.47
2017-07-20T02:25:22.324Z,58.75
2017-07-20T02:26:02.773Z,59.05
2017-07-20T02:26:43.221Z,59.23
2017-07-20T02:27:23.670Z,59.14
2017-07-20T02:28:04.122Z,59.33
2017-07-20T02:28:44.576Z,59.23
2017-07-20T02:29:25.031Z,59.23
2017-07-20T02:30:05.486Z,59.23
2017-07-20T02:30:45.944Z,59.05
2017-07-20T02:31:26.397Z,59.43
2017-07-20T02:32:06.850Z,59.53
2017-07-20T02:32:47.287Z,59.63
2017-07-20T02:33:27.741Z,59.63
2017-07-20T02:35:45.690Z,59.63
2017-07-20T02:36:26.142Z,60.01
2017-07-20T02:37:06.593Z,60.11
2017-07-20T02:37:47.047Z,59.82
2017-07-20T02:38:27.498Z,60.01
2017-07-20T02:39:07.960Z,60.01
2017-07-20T02:39:48.417Z,60.01
2017-07-20T02:40:28.867Z,59.82
2017-07-20T02:41:09.320Z,59.72
2017-07-20T02:41:49.773Z,59.33
2017-07-20T02:42:30.216Z,59.53
2017-07-20T02:43:10.670Z,59.72
2017-07-20T02:43:51.126Z,59.63
2017-07-20T02:44:31.574Z,60.01
2017-07-20T02:45:12.028Z,60.01
2017-07-20T02:45:52.481Z,59.66
2017-07-20T02:46:32.936Z,59.72
2017-07-20T02:47:13.406Z,60.01
2017-07-20T02:47:53.859Z,59.46
2017-07-20T02:48:34.314Z,59.46
2017-07-20T02:49:14.768Z,59.56
2017-07-20T02:49:55.223Z,59.84
2017-07-20T02:50:35.674Z,60.14
2017-07-20T02:51:16.141Z,60.04
2017-07-20T02:51:56.584Z,60.14
2017-07-20T02:52:37.054Z,60.14
2017-07-20T02:53:17.512Z,60.33
2017-07-20T02:53:57.968Z,60.04
2017-07-20T02:54:38.423Z,59.84
2017-07-20T02:55:18.883Z,59.84
2017-07-20T02:55:59.344Z,59.84
2017-07-20T02:56:39.794Z,59.84
2017-07-20T02:57:20.260Z,59.84
2017-07-20T02:58:00.715Z,59.66
2017-07-20T02:58:41.172Z,60.14
2017-07-20T02:59:21.641Z,59.94
2017-07-20T03:00:02.083Z,59.66
2017-07-20T03:00:42.533Z,60.14
2017-07-20T03:01:22.993Z,60.14
2017-07-20T03:02:03.446Z,60.24
2017-07-20T03:02:43.904Z,59.94
2017-07-20T03:03:24.353Z,60.04
2017-07-20T03:04:04.799Z,59.94
2017-07-20T03:04:45.256Z,60.33
2017-07-20T03:05:25.715Z,60.14
2017-07-20T03:06:06.170Z,60.43
2017-07-20T03:06:46.619Z,59.75
2017-07-20T03:07:27.081Z,59.59
2017-07-20T03:08:07.534Z,60.14
2017-07-20T03:08:47.992Z,59.97
2017-07-20T03:09:28.445Z,60.04
2017-07-20T03:10:08.900Z,60.43
2017-07-20T03:10:49.355Z,60.33
2017-07-20T03:11:29.815Z,60.33
2017-07-20T03:12:10.266Z,60.43
2017-07-20T03:12:50.723Z,60.14
2017-07-20T03:13:31.174Z,60.24
2017-07-20T03:14:11.626Z,60.14
2017-07-20T03:14:52.085Z,60.43
2017-07-20T03:15:32.533Z,60.43
2017-07-20T03:16:12.986Z,60.24
2017-07-20T03:16:53.435Z,60.82
2017-07-20T03:17:33.897Z,60.62
2017-07-20T03:18:14.419Z,60.72
2017-07-20T03:18:54.870Z,60.82
2017-07-20T03:19:35.330Z,60.91
2017-07-20T03:20:15.787Z,60.62
2017-07-20T03:20:56.250Z,60.62
2017-07-20T03:21:36.710Z,60.72
2017-07-20T03:22:17.179Z,60.72
2017-07-20T03:22:57.633Z,60.72
2017-07-20T03:23:38.087Z,60.72
2017-07-20T03:24:18.545Z,60.91
2017-07-20T03:24:59.006Z,60.91
2017-07-20T03:25:39.462Z,60.91
2017-07-20T03:26:19.939Z,60.82
2017-07-20T03:27:00.397Z,60.62
2017-07-20T03:27:40.846Z,60.72
2017-07-20T03:28:21.297Z,60.52
2017-07-20T03:29:01.758Z,60.72
2017-07-20T03:29:42.216Z,60.82
2017-07-20T03:30:22.671Z,60.72
2017-07-20T03:31:03.123Z,60.82
2017-07-20T03:31:43.576Z,61.4
2017-07-20T03:32:24.038Z,61.3
2017-07-20T03:33:04.496Z,61.21
2017-07-20T03:33:44.952Z,60.91
2017-07-20T03:34:25.411Z,60.91
2017-07-20T03:35:05.867Z,61.01
2017-07-20T03:35:46.327Z,61.21
2017-07-20T03:36:26.786Z,61.21
2017-07-20T03:37:07.241Z,61.11
2017-07-20T03:37:47.706Z,61.11
2017-07-20T03:38:28.162Z,61.3
2017-07-20T03:39:08.609Z,61.01
2017-07-20T03:39:49.068Z,60.91
2017-07-20T03:40:29.523Z,61.3
2017-07-20T03:41:09.978Z,61.49
2017-07-20T03:41:50.432Z,61.79
2017-07-20T03:42:30.889Z,61.79
2017-07-20T03:43:11.349Z,61.69
2017-07-20T03:43:51.799Z,61.59
2017-07-20T03:44:32.255Z,61.3
2017-07-20T03:45:12.715Z,61.69
2017-07-20T03:45:53.175Z,61.91
2017-07-20T03:46:33.635Z,61.79
2017-07-20T03:47:14.093Z,61.82
2017-07-20T03:47:54.547Z,61.62
2017-07-20T03:48:35.013Z,61.72
2017-07-20T03:49:15.465Z,61.62
2017-07-20T03:49:55.924Z,61.72
2017-07-20T03:50:36.403Z,61.72
2017-07-20T03:51:16.856Z,61.72
2017-07-20T03:51:57.338Z,61.33
2017-07-20T03:52:37.798Z,61.82
2017-07-20T03:53:18.252Z,61.82
2017-07-20T03:53:58.704Z,61.72
2017-07-20T03:54:39.158Z,61.82
2017-07-20T03:55:19.614Z,61.52
2017-07-20T03:56:00.087Z,61.62
2017-07-20T03:56:40.539Z,61.72
2017-07-20T03:57:20.995Z,61.82
2017-07-20T03:58:01.452Z,62.01
2017-07-20T03:58:41.898Z,62.01
2017-07-20T03:59:22.351Z,62.2
2017-07-20T04:00:02.829Z,62.1
2017-07-20T04:00:43.282Z,62.49
2017-07-20T04:01:23.731Z,62.49
2017-07-20T04:02:04.183Z,61.82
2017-07-20T04:02:44.651Z,61.91
2017-07-20T04:03:25.099Z,61.91
2017-07-20T04:04:05.554Z,61.82
2017-07-20T04:04:46.027Z,61.94
2017-07-20T04:05:26.468Z,61.55
2017-07-20T04:06:06.923Z,61.55
2017-07-20T04:06:47.399Z,61.75
2017-07-20T04:07:27.853Z,61.85
2017-07-20T04:08:08.307Z,61.65
2017-07-20T04:08:48.762Z,61.55
2017-07-20T04:09:29.213Z,61.65
2017-07-20T04:10:09.673Z,61.65
2017-07-20T04:10:50.133Z,61.36
2017-07-20T04:11:30.599Z,61.26
2017-07-20T04:12:11.106Z,61.46
2017-07-20T04:12:51.559Z,60.97
2017-07-20T04:13:32.003Z,61.07
2017-07-20T04:14:12.462Z,61.26
2017-07-20T04:14:52.911Z,61.36
2017-07-20T04:15:33.350Z,61.17
2017-07-20T04:16:13.816Z,61.36
2017-07-20T04:16:54.255Z,61.07
2017-07-20T04:17:34.713Z,61.1
2017-07-20T04:18:15.173Z,61.26
2017-07-20T04:18:55.619Z,60.88
2017-07-20T04:19:36.068Z,60.68
2017-07-20T04:20:16.817Z,60.81
2017-07-20T04:22:04.410Z,60.78
2017-07-20T04:22:44.859Z,60.91
2017-07-20T04:23:25.332Z,61
2017-07-20T04:24:05.779Z,60.71
2017-07-20T04:24:46.230Z,60.81
2017-07-20T04:25:26.678Z,60.91
2017-07-20T04:26:07.132Z,60.81
2017-07-20T04:26:47.676Z,60.81
2017-07-20T04:29:01.019Z,60.42
2017-07-20T04:29:41.418Z,60.32
2017-07-20T04:30:21.845Z,60.52
2017-07-20T04:31:02.293Z,60.32
2017-07-20T04:31:42.751Z,60.32
2017-07-20T04:32:23.201Z,60.13
2017-07-20T04:33:03.654Z,60.32
2017-07-20T04:33:44.105Z,60.32
2017-07-20T04:34:24.638Z,60.32
2017-07-20T04:36:17.266Z,60.42
2017-07-20T04:36:57.735Z,60.32
2017-07-20T04:37:38.181Z,60.42
2017-07-20T04:38:18.633Z,60.42
2017-07-20T04:38:59.135Z,60.61
2017-07-20T04:39:39.615Z,60.32
2017-07-20T04:40:20.061Z,60.03
2017-07-20T04:41:00.517Z,59.84
2017-07-20T04:41:40.957Z,59.94
2017-07-20T04:42:21.418Z,59.55
2017-07-20T04:43:01.865Z,59.74
2017-07-20T04:43:42.312Z,59.84
2017-07-20T04:44:22.777Z,60.03
2017-07-20T04:45:03.231Z,60.03
2017-07-20T04:45:43.765Z,60.13
2017-07-20T04:46:24.218Z,60.52
2017-07-20T04:47:04.677Z,60.32
2017-07-20T04:47:45.128Z,60.03
2017-07-20T04:48:25.603Z,59.94
2017-07-20T04:49:06.046Z,60.13
2017-07-20T04:49:46.495Z,59.94
2017-07-20T04:50:26.952Z,60.03
2017-07-20T04:51:07.401Z,60.13
2017-07-20T04:51:47.864Z,59.94
2017-07-20T04:52:28.314Z,59.74
2017-07-20T04:53:08.773Z,59.74
2017-07-20T04:53:49.229Z,59.94
2017-07-20T04:54:29.671Z,60.03
2017-07-20T04:55:10.124Z,60.23
2017-07-20T04:55:50.610Z,60.03
2017-07-20T04:56:31.039Z,59.84
2017-07-20T04:57:11.494Z,59.94
2017-07-20T04:57:51.949Z,59.74
2017-07-20T04:58:32.450Z,59.74
2017-07-20T04:59:12.896Z,60.03
2017-07-20T04:59:53.352Z,60.03
2017-07-20T05:00:33.804Z,59.94
2017-07-20T05:01:14.256Z,59.94
2017-07-20T05:01:54.714Z,60.13
2017-07-20T05:02:35.156Z,60.13
2017-07-20T05:03:15.615Z,60.13
2017-07-20T05:03:56.071Z,60.23
2017-07-20T05:04:36.525Z,60.13
2017-07-20T05:05:16.981Z,60.23
2017-07-20T05:05:57.433Z,60.13
2017-07-20T05:06:37.912Z,60.13
2017-07-20T05:07:18.422Z,60.23
2017-07-20T05:07:58.878Z,60.13
2017-07-20T05:08:39.326Z,60.32
2017-07-20T05:09:19.778Z,60.13
2017-07-20T05:10:00.220Z,60.13
2017-07-20T05:10:40.671Z,60.13
2017-07-20T05:11:21.127Z,60.03
2017-07-20T05:12:01.581Z,60.03
2017-07-20T05:12:42.032Z,60.13
2017-07-20T05:13:22.504Z,60.03
2017-07-20T05:14:02.960Z,59.94
2017-07-20T05:14:43.415Z,59.94
2017-07-20T05:15:23.865Z,60.13
2017-07-20T05:16:04.320Z,60.23
2017-07-20T05:16:44.796Z,60.03
2017-07-20T05:17:25.252Z,60.23
2017-07-20T05:18:05.706Z,59.94
2017-07-20T05:18:46.164Z,59.84
2017-07-20T05:19:26.622Z,59.74
2017-07-20T05:20:07.077Z,60.03
2017-07-20T05:20:47.532Z,59.94
2017-07-20T05:21:27.984Z,59.94
2017-07-20T05:22:08.436Z,59.94
2017-07-20T05:22:48.889Z,59.94
2017-07-20T05:23:29.341Z,59.84
2017-07-20T05:24:09.808Z,60.13
2017-07-20T05:24:50.252Z,60.13
2017-07-20T05:25:30.705Z,60.13
2017-07-20T05:26:11.157Z,60.13
2017-07-20T05:26:51.605Z,60.13
2017-07-20T05:27:32.061Z,59.64
2017-07-20T05:28:12.515Z,59.84
2017-07-20T05:28:52.970Z,59.84
2017-07-20T05:29:33.416Z,59.94
2017-07-20T05:30:13.870Z,59.74
2017-07-20T05:30:54.311Z,59.74
2017-07-20T05:31:34.778Z,60.03
2017-07-20T05:32:15.240Z,59.74
2017-07-20T05:32:55.695Z,59.74
2017-07-20T05:33:36.143Z,59.84
2017-07-20T05:34:16.602Z,59.84
2017-07-20T05:34:57.051Z,59.94
2017-07-20T05:35:37.508Z,59.94
2017-07-20T05:36:17.956Z,59.94
2017-07-20T05:36:58.413Z,59.74
2017-07-20T05:37:38.876Z,59.84
2017-07-20T05:38:19.330Z,59.64
2017-07-20T05:38:59.780Z,59.55
2017-07-20T05:39:40.235Z,59.55
2017-07-20T05:40:20.694Z,59.64
2017-07-20T05:41:01.140Z,59.64
2017-07-20T05:41:41.598Z,59.55
2017-07-20T05:42:22.048Z,59.55
2017-07-20T05:43:02.498Z,59.64
2017-07-20T05:43:42.951Z,59.36
2017-07-20T05:44:23.408Z,59.45
2017-07-20T05:45:03.862Z,59.64
2017-07-20T05:45:44.317Z,59.36
2017-07-20T05:46:24.775Z,59.26
2017-07-20T05:47:05.230Z,59.36
2017-07-20T05:47:45.684Z,59.36
2017-07-20T05:48:26.137Z,59.45
2017-07-20T05:49:06.597Z,59.45
2017-07-20T05:49:47.047Z,59.45
2017-07-20T05:50:27.500Z,59.55
2017-07-20T05:51:07.957Z,59.55
2017-07-20T05:51:48.412Z,59.16
2017-07-20T05:52:28.935Z,59.45
2017-07-20T05:53:09.389Z,59.36
2017-07-20T05:53:49.848Z,59.55
2017-07-20T05:54:30.302Z,59.16
2017-07-20T05:55:10.758Z,58.97
2017-07-20T05:55:51.218Z,59.55
2017-07-20T05:56:31.675Z,59.74
2017-07-20T05:57:12.127Z,59.36
2017-07-20T05:57:52.588Z,59.45
2017-07-20T05:58:33.042Z,59.36
2017-07-20T05:59:13.498Z,59.45
2017-07-20T05:59:53.951Z,59.36
2017-07-20T06:00:34.409Z,59.36
2017-07-20T06:01:14.872Z,59.45
2017-07-20T06:01:55.322Z,59.36
2017-07-20T06:02:35.781Z,59.45
2017-07-20T06:03:16.301Z,59.36
2017-07-20T06:03:56.671Z,59.45
2017-07-20T06:04:37.121Z,59.45
2017-07-20T06:05:17.586Z,59.36
2017-07-20T06:05:58.033Z,59.45
2017-07-20T06:06:38.495Z,59.45
2017-07-20T06:07:19.032Z,59.45
2017-07-20T06:07:59.512Z,59.26
2017-07-20T06:08:39.957Z,59.36
2017-07-20T06:09:20.383Z,59.26
2017-07-20T06:10:00.813Z,59.26
2017-07-20T06:10:41.268Z,59.26
2017-07-20T06:11:21.615Z,59.26
2017-07-20T06:12:02.018Z,59.26
2017-07-20T06:12:42.438Z,59.36
2017-07-20T06:13:22.879Z,59.36
2017-07-20T06:14:03.314Z,59.64
2017-07-20T06:14:43.834Z,59.06
2017-07-20T06:16:31.359Z,59.06
2017-07-20T06:17:12.640Z,59.06
2017-07-20T06:17:53.031Z,58.97
2017-07-20T06:18:33.435Z,59.06
2017-07-20T06:19:13.885Z,58.97
2017-07-20T06:19:54.294Z,58.77
2017-07-20T06:20:34.639Z,58.77
2017-07-20T06:21:15.149Z,58.77
2017-07-20T06:21:55.593Z,58.77
2017-07-20T06:22:36.092Z,58.77
2017-07-20T06:23:16.535Z,58.67
2017-07-20T06:23:57.086Z,58.67
2017-07-20T06:24:37.498Z,58.67
2017-07-20T06:25:18.025Z,58.67
2017-07-20T06:25:58.369Z,59.06
2017-07-20T06:26:38.806Z,58.58
2017-07-20T06:27:19.380Z,58.67
2017-07-20T06:29:37.400Z,58.58
2017-07-20T06:30:17.830Z,58.67
2017-07-20T06:30:58.242Z,58.67
2017-07-20T06:31:38.692Z,58.39
2017-07-20T06:32:19.209Z,58.48
2017-07-20T06:32:59.652Z,58.67
2017-07-20T06:33:40.103Z,58.58
2017-07-20T06:34:20.511Z,58.58
2017-07-20T06:35:00.909Z,58.67
2017-07-20T06:35:41.270Z,58.58
2017-07-20T06:37:38.961Z,58.67
2017-07-20T06:38:19.375Z,58.39
2017-07-20T06:38:59.826Z,58.48
2017-07-20T06:39:40.307Z,58.48
2017-07-20T06:40:20.765Z,58.48
2017-07-20T06:41:01.215Z,58.77
2017-07-20T06:41:41.671Z,58.58
2017-07-20T06:42:22.179Z,58.67
2017-07-20T06:43:02.635Z,58.67
2017-07-20T06:43:43.079Z,58.67
2017-07-20T06:44:23.529Z,58.67
2017-07-20T06:45:03.987Z,58.58
2017-07-20T06:45:44.443Z,58.67
2017-07-20T06:46:24.896Z,58.58
2017-07-20T06:47:05.351Z,58.58
2017-07-20T06:47:46.477Z,58.77
2017-07-20T06:48:26.935Z,58.87
2017-07-20T06:49:07.383Z,58.58
2017-07-20T06:49:47.823Z,58.87
2017-07-20T06:50:28.473Z,58.77
2017-07-20T06:51:08.925Z,58.87
2017-07-20T06:51:49.380Z,58.77
2017-07-20T06:52:29.830Z,58.67
2017-07-20T06:53:10.272Z,58.67
2017-07-20T06:53:50.727Z,58.87
2017-07-20T06:55:43.363Z,58.77
2017-07-20T06:56:23.799Z,58.87
2017-07-20T06:57:04.243Z,58.87
2017-07-20T06:57:44.675Z,58.87
2017-07-20T06:58:25.066Z,58.77
2017-07-20T06:59:05.493Z,58.7
2017-07-20T06:59:45.940Z,58.77
2017-07-20T07:00:26.416Z,58.77
2017-07-20T07:01:06.849Z,58.97
2017-07-20T07:01:47.308Z,58.87
2017-07-20T07:02:27.757Z,58.97
2017-07-20T07:03:08.205Z,59.06
2017-07-20T07:03:48.655Z,58.87
2017-07-20T07:04:29.107Z,58.97
2017-07-20T07:05:09.566Z,58.97
2017-07-20T07:05:50.031Z,58.67
2017-07-20T07:06:30.489Z,58.67
2017-07-20T07:07:10.941Z,58.48
2017-07-20T07:07:51.396Z,58.67
2017-07-20T07:08:31.875Z,58.39
2017-07-20T07:09:12.325Z,58.67
2017-07-20T07:09:52.803Z,58.39
2017-07-20T07:10:33.225Z,58.39
2017-07-20T07:11:13.684Z,58.8
2017-07-20T07:11:54.146Z,58.48
2017-07-20T07:12:34.599Z,58.48
2017-07-20T07:13:15.051Z,58.48
2017-07-20T07:13:55.497Z,58.39
2017-07-20T07:14:35.949Z,58.48
2017-07-20T07:15:16.432Z,58.19
2017-07-20T07:15:56.839Z,58.29
2017-07-20T07:16:37.286Z,58.39
2017-07-20T07:17:17.740Z,58.31
2017-07-20T07:17:58.188Z,58.29
2017-07-20T07:18:38.641Z,58.39
2017-07-20T07:19:19.095Z,58.48
2017-07-20T07:19:59.543Z,58.29
2017-07-20T07:20:39.996Z,58.39
2017-07-20T07:21:20.445Z,58.39
2017-07-20T07:22:00.903Z,58.67
2017-07-20T07:22:41.360Z,58.29
2017-07-20T07:23:21.811Z,58.39
2017-07-20T07:24:02.261Z,58.39
2017-07-20T07:24:42.719Z,58.19
2017-07-20T07:25:23.181Z,58.39
2017-07-20T07:26:03.642Z,58.39
2017-07-20T07:26:44.099Z,58.58
2017-07-20T07:27:24.555Z,58.41
2017-07-20T07:28:04.997Z,58.58
2017-07-20T07:28:45.455Z,58.48
2017-07-20T07:29:25.901Z,58.41
2017-07-20T07:30:06.355Z,58.58
2017-07-20T07:30:46.809Z,58.51
2017-07-20T07:31:27.261Z,58.51
2017-07-20T07:32:07.722Z,58.48
2017-07-20T07:32:48.165Z,58.61
2017-07-20T07:33:28.622Z,58.51
2017-07-20T07:34:09.065Z,58.41
2017-07-20T07:34:49.524Z,58.29
2017-07-20T07:35:29.978Z,58.51
2017-07-20T07:36:10.436Z,58.7
2017-07-20T07:36:50.894Z,58.7
2017-07-20T07:37:31.352Z,58.58
2017-07-20T07:38:11.812Z,58.61
2017-07-20T07:38:52.263Z,58.7
2017-07-20T07:39:32.717Z,58.61
2017-07-20T07:40:13.197Z,58.61
2017-07-20T07:40:53.656Z,58.61
2017-07-20T07:41:34.105Z,58.61
2017-07-20T07:42:14.556Z,58.58
2017-07-20T07:42:55.007Z,58.61
2017-07-20T07:43:35.463Z,58.61
2017-07-20T07:44:15.906Z,58.51
2017-07-20T07:44:56.353Z,58.61
2017-07-20T07:45:36.801Z,58.03
2017-07-20T07:46:17.313Z,58.61
2017-07-20T07:46:57.784Z,57.83
2017-07-20T07:47:38.236Z,57.93
2017-07-20T07:48:18.982Z,57.93
2017-07-20T07:48:59.432Z,57.93
2017-07-20T07:49:39.883Z,58.41
2017-07-20T07:50:20.331Z,58.12
2017-07-20T07:51:00.794Z,58.12
2017-07-20T07:51:41.235Z,57.93
2017-07-20T07:52:21.692Z,58.12
2017-07-20T07:53:02.142Z,58.03
2017-07-20T07:53:42.593Z,58.12
2017-07-20T07:54:23.041Z,58.12
2017-07-20T07:55:03.498Z,58.12
2017-07-20T07:55:43.949Z,58.29
2017-07-20T07:56:24.402Z,58.41
2017-07-20T07:57:04.859Z,58.41
2017-07-20T07:57:45.314Z,58.22
2017-07-20T07:58:25.773Z,58.12
2017-07-20T07:59:06.221Z,58.03
2017-07-20T07:59:46.677Z,58.22
2017-07-20T08:00:27.133Z,58.12
2017-07-20T08:01:07.592Z,57.83
2017-07-20T08:01:48.045Z,58.12
2017-07-20T08:02:28.498Z,58.12
2017-07-20T08:03:08.953Z,58.22
2017-07-20T08:03:49.416Z,58.22
2017-07-20T08:04:29.872Z,57.93
2017-07-20T08:05:10.317Z,57.83
2017-07-20T08:05:50.772Z,58.03
2017-07-20T08:06:31.236Z,58.22
2017-07-20T08:07:11.938Z,58.41
2017-07-20T08:07:52.153Z,58.22
2017-07-20T08:08:32.610Z,57.93
2017-07-20T08:09:13.072Z,58.31
2017-07-20T08:09:53.527Z,57.76
2017-07-20T08:10:33.979Z,57.93
2017-07-20T08:11:14.436Z,57.86
2017-07-20T08:11:54.885Z,57.57
2017-07-20T08:12:35.329Z,57.76
2017-07-20T08:13:15.777Z,57.57
2017-07-20T08:13:56.257Z,57.76
2017-07-20T08:14:36.697Z,57.57
2017-07-20T08:15:17.155Z,58.05
2017-07-20T08:15:57.617Z,57.96
2017-07-20T08:16:38.075Z,57.96
2017-07-20T08:17:18.664Z,58.15
2017-07-20T08:17:59.255Z,58.15
2017-07-20T08:18:39.697Z,57.37
2017-07-20T08:19:20.145Z,57.37
2017-07-20T08:20:00.609Z,57.76
2017-07-20T08:20:41.060Z,57.76
2017-07-20T08:21:21.495Z,57.76
2017-07-20T08:22:01.954Z,57.67
2017-07-20T08:22:42.398Z,57.37
2017-07-20T08:23:22.864Z,57.37
2017-07-20T08:24:03.315Z,58.15
2017-07-20T08:24:43.772Z,57.18
2017-07-20T08:25:24.225Z,57.47
2017-07-20T08:26:04.679Z,58.05
2017-07-20T08:26:45.137Z,57.96
2017-07-20T08:27:25.594Z,57.96
2017-07-20T08:28:06.055Z,58.05
2017-07-20T08:28:46.476Z,57.96
2017-07-20T08:29:26.934Z,57.96
2017-07-20T08:30:07.387Z,57.96
2017-07-20T08:30:47.917Z,57.96
2017-07-20T08:31:28.267Z,57.96
2017-07-20T08:32:08.756Z,57.86
2017-07-20T08:32:49.198Z,58.05
2017-07-20T08:33:29.861Z,57.86
2017-07-20T08:34:10.459Z,57.67
2017-07-20T08:34:50.914Z,57.67
2017-07-20T08:35:31.374Z,57.86
2017-07-20T08:36:11.989Z,57.76
2017-07-20T08:36:52.444Z,57.47
2017-07-20T08:37:32.892Z,57.57
2017-07-20T08:38:13.343Z,57.57
2017-07-20T08:38:53.799Z,57.67
2017-07-20T08:39:34.257Z,57.76
2017-07-20T08:40:14.704Z,57.76
2017-07-20T08:40:55.155Z,57.86
2017-07-20T08:41:35.631Z,57.67
2017-07-20T08:42:16.251Z,57.67
2017-07-20T08:42:57.147Z,57.86
2017-07-20T08:43:37.591Z,57.96
2017-07-20T08:44:18.041Z,58.05
2017-07-20T08:44:58.492Z,57.76
2017-07-20T08:45:38.946Z,57.96
2017-07-20T08:46:19.398Z,57.18
2017-07-20T08:46:59.980Z,57.76
2017-07-20T08:47:40.443Z,57.57
2017-07-20T08:48:20.901Z,57.28
2017-07-20T08:49:01.340Z,57.08
2017-07-20T08:49:41.771Z,57.18
2017-07-20T08:50:22.928Z,57.28
2017-07-20T08:51:03.496Z,57.18
2017-07-20T08:51:43.939Z,57.47
2017-07-20T08:52:24.342Z,57.37
2017-07-20T08:53:04.799Z,57.37
2017-07-20T08:53:45.199Z,57.37